sensor_id;sensor_type;location;lat;lon;timestamp;P1;durP1;ratioP1;P2;durP2;ratioP2
25127;SDS011;13107;51.304;6.866;2023-06-22T00:02:13;8.90;;;3.15;;
25127;SDS011;13107;51.304;6.866;2023-06-22T00:06:15;4.37;;;3.10;;
25127;SDS011;13107;51.304;6.866;2023-06-22T00:10:17;3.97;;;3.10;;
25127;SDS011;13107;51.304;6.866;2023-06-22T00:14:18;4.30;;;2.85;;
25127;SDS011;13107;51.304;6.866;2023-06-22T00:18:20;6.03;;;3.28;;
25127;SDS011;13107;51.304;6.866;2023-06-22T00:22:23;7.65;;;3.15;;
25127;SDS011;13107;51.304;6.866;2023-06-22T00:26:30;4.62;;;3.00;;
25127;SDS011;13107;51.304;6.866;2023-06-22T00:30:32;5.97;;;3.08;;
25127;SDS011;13107;51.304;6.866;2023-06-22T00:34:34;2.83;;;2.55;;
25127;SDS011;13107;51.304;6.866;2023-06-22T00:38:36;5.87;;;3.03;;
25127;SDS011;13107;51.304;6.866;2023-06-22T00:42:41;4.53;;;3.17;;
25127;SDS011;13107;51.304;6.866;2023-06-22T00:46:43;6.60;;;3.50;;
25127;SDS011;13107;51.304;6.866;2023-06-22T00:50:45;4.30;;;3.17;;
25127;SDS011;13107;51.304;6.866;2023-06-22T00:54:47;4.87;;;3.40;;
25127;SDS011;13107;51.304;6.866;2023-06-22T00:58:50;5.70;;;3.50;;
25127;SDS011;13107;51.304;6.866;2023-06-22T01:02:54;5.75;;;3.08;;
25127;SDS011;13107;51.304;6.866;2023-06-22T01:07:10;6.62;;;3.40;;
25127;SDS011;13107;51.304;6.866;2023-06-22T01:11:35;4.40;;;2.90;;
25127;SDS011;13107;51.304;6.866;2023-06-22T01:15:49;4.00;;;3.37;;
25127;SDS011;13107;51.304;6.866;2023-06-22T01:19:54;4.57;;;3.30;;
25127;SDS011;13107;51.304;6.866;2023-06-22T01:24:03;9.30;;;4.47;;
25127;SDS011;13107;51.304;6.866;2023-06-22T01:28:17;5.90;;;3.67;;
25127;SDS011;13107;51.304;6.866;2023-06-22T01:32:29;4.50;;;2.72;;
25127;SDS011;13107;51.304;6.866;2023-06-22T01:36:36;5.03;;;3.62;;
25127;SDS011;13107;51.304;6.866;2023-06-22T01:40:39;5.40;;;3.17;;
25127;SDS011;13107;51.304;6.866;2023-06-22T01:44:42;4.47;;;2.95;;
25127;SDS011;13107;51.304;6.866;2023-06-22T01:48:44;5.82;;;3.22;;
25127;SDS011;13107;51.304;6.866;2023-06-22T01:52:47;6.93;;;3.75;;
25127;SDS011;13107;51.304;6.866;2023-06-22T01:56:49;6.65;;;3.60;;
25127;SDS011;13107;51.304;6.866;2023-06-22T02:01:04;7.72;;;4.20;;
25127;SDS011;13107;51.304;6.866;2023-06-22T02:05:14;4.80;;;3.62;;
25127;SDS011;13107;51.304;6.866;2023-06-22T02:09:18;5.85;;;3.45;;
25127;SDS011;13107;51.304;6.866;2023-06-22T02:13:24;5.07;;;3.90;;
25127;SDS011;13107;51.304;6.866;2023-06-22T02:17:26;7.10;;;4.15;;
25127;SDS011;13107;51.304;6.866;2023-06-22T02:21:29;5.45;;;3.95;;
25127;SDS011;13107;51.304;6.866;2023-06-22T02:25:32;6.87;;;4.82;;
25127;SDS011;13107;51.304;6.866;2023-06-22T02:29:34;8.85;;;6.20;;
25127;SDS011;13107;51.304;6.866;2023-06-22T02:33:36;9.00;;;6.80;;
25127;SDS011;13107;51.304;6.866;2023-06-22T02:37:38;9.65;;;6.72;;
25127;SDS011;13107;51.304;6.866;2023-06-22T02:41:42;9.73;;;6.50;;
25127;SDS011;13107;51.304;6.866;2023-06-22T02:45:44;8.70;;;6.18;;
25127;SDS011;13107;51.304;6.866;2023-06-22T02:49:46;8.88;;;5.87;;
25127;SDS011;13107;51.304;6.866;2023-06-22T02:53:47;8.55;;;6.70;;
25127;SDS011;13107;51.304;6.866;2023-06-22T02:57:49;6.82;;;5.90;;
25127;SDS011;13107;51.304;6.866;2023-06-22T03:01:53;11.38;;;6.95;;
25127;SDS011;13107;51.304;6.866;2023-06-22T03:05:55;9.18;;;7.15;;
25127;SDS011;13107;51.304;6.866;2023-06-22T03:09:57;10.73;;;7.10;;
25127;SDS011;13107;51.304;6.866;2023-06-22T03:13:59;7.05;;;5.78;;
25127;SDS011;13107;51.304;6.866;2023-06-22T03:18:01;7.85;;;6.15;;
25127;SDS011;13107;51.304;6.866;2023-06-22T03:22:03;7.47;;;6.25;;
25127;SDS011;13107;51.304;6.866;2023-06-22T03:26:05;7.43;;;5.18;;
25127;SDS011;13107;51.304;6.866;2023-06-22T03:30:07;8.73;;;4.75;;
25127;SDS011;13107;51.304;6.866;2023-06-22T03:34:10;6.20;;;5.20;;
25127;SDS011;13107;51.304;6.866;2023-06-22T03:38:12;6.40;;;4.35;;
25127;SDS011;13107;51.304;6.866;2023-06-22T03:42:14;10.00;;;5.90;;
25127;SDS011;13107;51.304;6.866;2023-06-22T03:46:16;8.27;;;5.40;;
25127;SDS011;13107;51.304;6.866;2023-06-22T03:50:17;8.50;;;5.43;;
25127;SDS011;13107;51.304;6.866;2023-06-22T03:54:21;10.57;;;8.18;;
25127;SDS011;13107;51.304;6.866;2023-06-22T03:58:23;10.32;;;8.40;;
25127;SDS011;13107;51.304;6.866;2023-06-22T04:02:25;14.87;;;9.68;;
25127;SDS011;13107;51.304;6.866;2023-06-22T04:06:27;13.25;;;9.63;;
25127;SDS011;13107;51.304;6.866;2023-06-22T04:10:29;12.90;;;10.27;;
25127;SDS011;13107;51.304;6.866;2023-06-22T04:14:31;13.23;;;10.93;;
25127;SDS011;13107;51.304;6.866;2023-06-22T04:18:32;14.38;;;10.43;;
25127;SDS011;13107;51.304;6.866;2023-06-22T04:22:34;11.88;;;10.65;;
25127;SDS011;13107;51.304;6.866;2023-06-22T04:26:36;12.68;;;10.68;;
25127;SDS011;13107;51.304;6.866;2023-06-22T04:30:38;13.77;;;11.63;;
25127;SDS011;13107;51.304;6.866;2023-06-22T04:34:47;12.88;;;11.20;;
25127;SDS011;13107;51.304;6.866;2023-06-22T04:38:49;14.90;;;11.23;;
25127;SDS011;13107;51.304;6.866;2023-06-22T04:42:53;12.05;;;10.43;;
25127;SDS011;13107;51.304;6.866;2023-06-22T04:46:56;13.23;;;11.25;;
25127;SDS011;13107;51.304;6.866;2023-06-22T04:51:01;14.83;;;11.10;;
25127;SDS011;13107;51.304;6.866;2023-06-22T04:55:05;10.75;;;9.65;;
25127;SDS011;13107;51.304;6.866;2023-06-22T04:59:08;17.92;;;11.23;;
25127;SDS011;13107;51.304;6.866;2023-06-22T05:03:14;16.50;;;9.88;;
25127;SDS011;13107;51.304;6.866;2023-06-22T05:07:21;13.10;;;10.75;;
25127;SDS011;13107;51.304;6.866;2023-06-22T05:11:26;13.55;;;9.85;;
25127;SDS011;13107;51.304;6.866;2023-06-22T05:15:29;12.85;;;10.82;;
25127;SDS011;13107;51.304;6.866;2023-06-22T05:19:34;13.35;;;10.25;;
25127;SDS011;13107;51.304;6.866;2023-06-22T05:23:36;13.05;;;10.43;;
25127;SDS011;13107;51.304;6.866;2023-06-22T05:27:37;19.23;;;12.05;;
25127;SDS011;13107;51.304;6.866;2023-06-22T05:31:40;13.23;;;10.05;;
25127;SDS011;13107;51.304;6.866;2023-06-22T05:35:42;12.45;;;10.88;;
25127;SDS011;13107;51.304;6.866;2023-06-22T05:39:44;13.93;;;10.68;;
25127;SDS011;13107;51.304;6.866;2023-06-22T05:43:46;13.18;;;10.85;;
25127;SDS011;13107;51.304;6.866;2023-06-22T05:47:48;12.15;;;9.85;;
25127;SDS011;13107;51.304;6.866;2023-06-22T05:51:49;14.07;;;9.20;;
25127;SDS011;13107;51.304;6.866;2023-06-22T05:55:51;11.60;;;9.73;;
25127;SDS011;13107;51.304;6.866;2023-06-22T05:59:53;12.77;;;9.88;;
25127;SDS011;13107;51.304;6.866;2023-06-22T06:03:55;13.50;;;10.65;;
25127;SDS011;13107;51.304;6.866;2023-06-22T06:07:57;13.30;;;10.52;;
25127;SDS011;13107;51.304;6.866;2023-06-22T06:11:59;13.13;;;10.10;;
25127;SDS011;13107;51.304;6.866;2023-06-22T06:16:01;16.45;;;11.25;;
25127;SDS011;13107;51.304;6.866;2023-06-22T06:20:02;13.60;;;11.73;;
25127;SDS011;13107;51.304;6.866;2023-06-22T06:24:06;15.15;;;10.57;;
25127;SDS011;13107;51.304;6.866;2023-06-22T06:28:07;12.45;;;11.15;;
25127;SDS011;13107;51.304;6.866;2023-06-22T06:32:09;10.75;;;9.65;;
25127;SDS011;13107;51.304;6.866;2023-06-22T06:36:11;11.55;;;10.38;;
25127;SDS011;13107;51.304;6.866;2023-06-22T06:40:13;12.15;;;10.73;;
25127;SDS011;13107;51.304;6.866;2023-06-22T06:44:16;13.10;;;10.63;;
25127;SDS011;13107;51.304;6.866;2023-06-22T06:48:18;13.73;;;10.90;;
25127;SDS011;13107;51.304;6.866;2023-06-22T06:52:20;12.90;;;10.50;;
25127;SDS011;13107;51.304;6.866;2023-06-22T06:56:22;11.25;;;9.55;;
25127;SDS011;13107;51.304;6.866;2023-06-22T07:00:23;15.75;;;12.48;;
25127;SDS011;13107;51.304;6.866;2023-06-22T07:04:26;22.73;;;15.30;;
25127;SDS011;13107;51.304;6.866;2023-06-22T07:08:28;25.37;;;15.90;;
25127;SDS011;13107;51.304;6.866;2023-06-22T07:12:30;21.75;;;18.45;;
25127;SDS011;13107;51.304;6.866;2023-06-22T07:16:31;24.37;;;18.48;;
25127;SDS011;13107;51.304;6.866;2023-06-22T07:20:33;21.50;;;19.17;;
25127;SDS011;13107;51.304;6.866;2023-06-22T07:24:35;22.58;;;20.00;;
25127;SDS011;13107;51.304;6.866;2023-06-22T07:28:38;23.30;;;20.90;;
25127;SDS011;13107;51.304;6.866;2023-06-22T07:32:41;22.73;;;20.37;;
25127;SDS011;13107;51.304;6.866;2023-06-22T07:36:43;27.37;;;21.98;;
25127;SDS011;13107;51.304;6.866;2023-06-22T07:40:46;22.37;;;20.10;;
25127;SDS011;13107;51.304;6.866;2023-06-22T07:44:48;24.95;;;21.80;;
25127;SDS011;13107;51.304;6.866;2023-06-22T07:48:52;23.17;;;20.80;;
25127;SDS011;13107;51.304;6.866;2023-06-22T07:52:57;23.20;;;20.80;;
25127;SDS011;13107;51.304;6.866;2023-06-22T07:56:58;22.17;;;19.67;;
25127;SDS011;13107;51.304;6.866;2023-06-22T08:01:00;23.60;;;21.10;;
25127;SDS011;13107;51.304;6.866;2023-06-22T08:05:03;25.92;;;22.98;;
25127;SDS011;13107;51.304;6.866;2023-06-22T08:09:20;27.87;;;25.10;;
25127;SDS011;13107;51.304;6.866;2023-06-22T08:13:23;27.45;;;24.25;;
25127;SDS011;13107;51.304;6.866;2023-06-22T08:17:24;23.48;;;21.12;;
25127;SDS011;13107;51.304;6.866;2023-06-22T08:21:26;21.87;;;18.30;;
25127;SDS011;13107;51.304;6.866;2023-06-22T08:25:28;19.23;;;17.27;;
25127;SDS011;13107;51.304;6.866;2023-06-22T08:29:30;18.08;;;16.20;;
25127;SDS011;13107;51.304;6.866;2023-06-22T08:33:32;15.55;;;13.93;;
25127;SDS011;13107;51.304;6.866;2023-06-22T08:37:34;18.00;;;13.32;;
25127;SDS011;13107;51.304;6.866;2023-06-22T08:41:36;13.80;;;12.45;;
25127;SDS011;13107;51.304;6.866;2023-06-22T08:45:38;10.45;;;8.63;;
25127;SDS011;13107;51.304;6.866;2023-06-22T08:49:41;12.25;;;9.45;;
25127;SDS011;13107;51.304;6.866;2023-06-22T08:53:42;10.85;;;9.85;;
25127;SDS011;13107;51.304;6.866;2023-06-22T08:57:46;11.73;;;10.63;;
25127;SDS011;13107;51.304;6.866;2023-06-22T09:01:48;12.00;;;10.52;;
25127;SDS011;13107;51.304;6.866;2023-06-22T09:05:50;12.93;;;11.63;;
25127;SDS011;13107;51.304;6.866;2023-06-22T09:09:51;12.75;;;10.27;;
25127;SDS011;13107;51.304;6.866;2023-06-22T09:13:54;10.18;;;9.18;;
25127;SDS011;13107;51.304;6.866;2023-06-22T09:17:55;12.63;;;10.25;;
25127;SDS011;13107;51.304;6.866;2023-06-22T09:21:58;12.07;;;10.88;;
25127;SDS011;13107;51.304;6.866;2023-06-22T09:26:01;8.98;;;8.13;;
25127;SDS011;13107;51.304;6.866;2023-06-22T09:30:04;11.05;;;10.05;;
25127;SDS011;13107;51.304;6.866;2023-06-22T09:34:06;10.40;;;9.50;;
25127;SDS011;13107;51.304;6.866;2023-06-22T09:38:08;10.85;;;9.43;;
25127;SDS011;13107;51.304;6.866;2023-06-22T09:42:09;12.37;;;10.43;;
25127;SDS011;13107;51.304;6.866;2023-06-22T09:46:11;11.52;;;9.57;;
25127;SDS011;13107;51.304;6.866;2023-06-22T09:50:13;11.32;;;10.23;;
25127;SDS011;13107;51.304;6.866;2023-06-22T09:54:15;13.18;;;11.57;;
25127;SDS011;13107;51.304;6.866;2023-06-22T09:58:16;12.82;;;11.52;;
25127;SDS011;13107;51.304;6.866;2023-06-22T10:02:18;13.48;;;10.93;;
25127;SDS011;13107;51.304;6.866;2023-06-22T10:06:20;10.90;;;9.80;;
25127;SDS011;13107;51.304;6.866;2023-06-22T10:10:22;12.32;;;10.30;;
25127;SDS011;13107;51.304;6.866;2023-06-22T10:14:24;13.38;;;11.20;;
25127;SDS011;13107;51.304;6.866;2023-06-22T10:18:26;12.98;;;11.57;;
25127;SDS011;13107;51.304;6.866;2023-06-22T10:22:28;13.73;;;11.95;;
25127;SDS011;13107;51.304;6.866;2023-06-22T10:26:29;11.88;;;10.68;;
25127;SDS011;13107;51.304;6.866;2023-06-22T10:30:31;15.73;;;12.73;;
25127;SDS011;13107;51.304;6.866;2023-06-22T10:34:33;14.23;;;11.38;;
25127;SDS011;13107;51.304;6.866;2023-06-22T10:38:35;12.80;;;11.57;;
25127;SDS011;13107;51.304;6.866;2023-06-22T10:42:37;12.63;;;11.32;;
25127;SDS011;13107;51.304;6.866;2023-06-22T10:46:39;11.95;;;10.85;;
25127;SDS011;13107;51.304;6.866;2023-06-22T10:50:40;13.65;;;11.10;;
25127;SDS011;13107;51.304;6.866;2023-06-22T10:54:42;16.12;;;14.05;;
25127;SDS011;13107;51.304;6.866;2023-06-22T10:58:44;16.23;;;13.95;;
25127;SDS011;13107;51.304;6.866;2023-06-22T11:02:46;15.73;;;14.07;;
25127;SDS011;13107;51.304;6.866;2023-06-22T11:06:48;19.08;;;17.05;;
25127;SDS011;13107;51.304;6.866;2023-06-22T11:10:51;19.80;;;17.75;;
25127;SDS011;13107;51.304;6.866;2023-06-22T11:14:53;18.40;;;16.52;;
25127;SDS011;13107;51.304;6.866;2023-06-22T11:18:57;20.65;;;18.45;;
25127;SDS011;13107;51.304;6.866;2023-06-22T11:22:59;23.02;;;20.50;;
25127;SDS011;13107;51.304;6.866;2023-06-22T11:27:01;23.70;;;21.08;;
25127;SDS011;13107;51.304;6.866;2023-06-22T11:31:03;28.05;;;23.38;;
25127;SDS011;13107;51.304;6.866;2023-06-22T11:35:25;25.42;;;22.92;;
25127;SDS011;13107;51.304;6.866;2023-06-22T11:39:27;33.67;;;25.88;;
25127;SDS011;13107;51.304;6.866;2023-06-22T11:43:43;29.42;;;26.20;;
25127;SDS011;13107;51.304;6.866;2023-06-22T11:47:45;33.72;;;27.25;;
25127;SDS011;13107;51.304;6.866;2023-06-22T11:51:48;32.95;;;29.55;;
25127;SDS011;13107;51.304;6.866;2023-06-22T11:55:49;31.40;;;28.15;;
25127;SDS011;13107;51.304;6.866;2023-06-22T11:59:51;36.33;;;32.38;;
25127;SDS011;13107;51.304;6.866;2023-06-22T12:03:53;36.55;;;32.70;;
25127;SDS011;13107;51.304;6.866;2023-06-22T12:07:55;39.75;;;34.95;;
25127;SDS011;13107;51.304;6.866;2023-06-22T12:11:57;43.50;;;38.83;;
25127;SDS011;13107;51.304;6.866;2023-06-22T12:15:59;44.33;;;39.50;;
25127;SDS011;13107;51.304;6.866;2023-06-22T12:20:00;43.72;;;39.08;;
25127;SDS011;13107;51.304;6.866;2023-06-22T12:24:03;38.83;;;34.60;;
25127;SDS011;13107;51.304;6.866;2023-06-22T12:28:05;37.47;;;33.70;;
25127;SDS011;13107;51.304;6.866;2023-06-22T12:32:07;36.10;;;31.05;;
25127;SDS011;13107;51.304;6.866;2023-06-22T12:36:09;33.05;;;29.65;;
25127;SDS011;13107;51.304;6.866;2023-06-22T12:40:11;37.47;;;33.67;;
25127;SDS011;13107;51.304;6.866;2023-06-22T12:44:13;35.55;;;31.85;;
25127;SDS011;13107;51.304;6.866;2023-06-22T12:48:14;38.00;;;34.28;;
25127;SDS011;13107;51.304;6.866;2023-06-22T12:52:17;35.15;;;31.42;;
25127;SDS011;13107;51.304;6.866;2023-06-22T12:56:19;37.88;;;33.90;;
25127;SDS011;13107;51.304;6.866;2023-06-22T13:00:20;38.63;;;34.55;;
25127;SDS011;13107;51.304;6.866;2023-06-22T13:04:22;40.17;;;34.42;;
25127;SDS011;13107;51.304;6.866;2023-06-22T13:08:24;35.20;;;31.50;;
25127;SDS011;13107;51.304;6.866;2023-06-22T13:12:46;34.45;;;30.85;;
25127;SDS011;13107;51.304;6.866;2023-06-22T13:16:47;33.67;;;30.27;;
25127;SDS011;13107;51.304;6.866;2023-06-22T13:20:49;31.40;;;28.35;;
25127;SDS011;13107;51.304;6.866;2023-06-22T13:24:51;34.92;;;30.30;;
25127;SDS011;13107;51.304;6.866;2023-06-22T13:28:55;32.33;;;29.05;;
25127;SDS011;13107;51.304;6.866;2023-06-22T13:32:56;32.30;;;29.08;;
25127;SDS011;13107;51.304;6.866;2023-06-22T13:36:58;32.63;;;29.33;;
25127;SDS011;13107;51.304;6.866;2023-06-22T13:41:00;34.80;;;31.10;;
25127;SDS011;13107;51.304;6.866;2023-06-22T13:45:02;33.53;;;30.12;;
25127;SDS011;13107;51.304;6.866;2023-06-22T13:49:05;30.67;;;27.58;;
25127;SDS011;13107;51.304;6.866;2023-06-22T13:53:06;30.27;;;27.17;;
25127;SDS011;13107;51.304;6.866;2023-06-22T13:57:08;33.58;;;30.02;;
25127;SDS011;13107;51.304;6.866;2023-06-22T14:01:10;33.65;;;29.95;;
25127;SDS011;13107;51.304;6.866;2023-06-22T14:05:18;34.15;;;30.85;;
25127;SDS011;13107;51.304;6.866;2023-06-22T14:09:19;41.53;;;29.80;;
25127;SDS011;13107;51.304;6.866;2023-06-22T14:13:21;31.35;;;28.20;;
25127;SDS011;13107;51.304;6.866;2023-06-22T14:17:23;30.98;;;27.87;;
25127;SDS011;13107;51.304;6.866;2023-06-22T14:21:27;26.95;;;24.23;;
25127;SDS011;13107;51.304;6.866;2023-06-22T14:25:29;30.77;;;27.65;;
25127;SDS011;13107;51.304;6.866;2023-06-22T14:29:31;29.92;;;26.87;;
25127;SDS011;13107;51.304;6.866;2023-06-22T14:33:32;29.77;;;26.62;;
25127;SDS011;13107;51.304;6.866;2023-06-22T14:37:34;32.15;;;28.77;;
25127;SDS011;13107;51.304;6.866;2023-06-22T14:41:36;33.58;;;30.27;;
25127;SDS011;13107;51.304;6.866;2023-06-22T14:45:38;31.70;;;28.60;;
25127;SDS011;13107;51.304;6.866;2023-06-22T14:49:40;30.25;;;27.05;;
25127;SDS011;13107;51.304;6.866;2023-06-22T14:53:43;28.35;;;25.50;;
25127;SDS011;13107;51.304;6.866;2023-06-22T14:57:45;28.42;;;25.40;;
25127;SDS011;13107;51.304;6.866;2023-06-22T15:01:47;28.90;;;25.98;;
25127;SDS011;13107;51.304;6.866;2023-06-22T15:05:49;25.92;;;23.23;;
25127;SDS011;13107;51.304;6.866;2023-06-22T15:09:51;24.58;;;22.25;;
25127;SDS011;13107;51.304;6.866;2023-06-22T15:13:52;24.30;;;21.62;;
25127;SDS011;13107;51.304;6.866;2023-06-22T15:17:54;21.77;;;19.65;;
25127;SDS011;13107;51.304;6.866;2023-06-22T15:21:56;24.67;;;22.00;;
25127;SDS011;13107;51.304;6.866;2023-06-22T15:25:58;23.17;;;20.75;;
25127;SDS011;13107;51.304;6.866;2023-06-22T15:30:03;21.65;;;19.35;;
25127;SDS011;13107;51.304;6.866;2023-06-22T15:34:05;22.40;;;20.00;;
25127;SDS011;13107;51.304;6.866;2023-06-22T15:38:07;22.37;;;19.95;;
25127;SDS011;13107;51.304;6.866;2023-06-22T15:42:09;23.83;;;20.65;;
25127;SDS011;13107;51.304;6.866;2023-06-22T15:46:11;23.55;;;21.15;;
25127;SDS011;13107;51.304;6.866;2023-06-22T15:50:12;24.90;;;22.37;;
25127;SDS011;13107;51.304;6.866;2023-06-22T15:54:14;27.83;;;24.92;;
25127;SDS011;13107;51.304;6.866;2023-06-22T15:58:17;29.98;;;26.70;;
25127;SDS011;13107;51.304;6.866;2023-06-22T16:02:19;29.98;;;26.80;;
25127;SDS011;13107;51.304;6.866;2023-06-22T16:06:21;33.47;;;28.50;;
25127;SDS011;13107;51.304;6.866;2023-06-22T16:10:23;30.15;;;26.95;;
25127;SDS011;13107;51.304;6.866;2023-06-22T16:14:25;29.27;;;26.37;;
25127;SDS011;13107;51.304;6.866;2023-06-22T16:18:27;30.73;;;27.65;;
25127;SDS011;13107;51.304;6.866;2023-06-22T16:22:29;32.08;;;28.60;;
25127;SDS011;13107;51.304;6.866;2023-06-22T16:26:37;33.78;;;30.27;;
25127;SDS011;13107;51.304;6.866;2023-06-22T16:30:39;33.05;;;29.52;;
25127;SDS011;13107;51.304;6.866;2023-06-22T16:34:42;34.33;;;30.88;;
25127;SDS011;13107;51.304;6.866;2023-06-22T16:38:46;32.22;;;28.83;;
25127;SDS011;13107;51.304;6.866;2023-06-22T16:42:48;33.53;;;29.95;;
25127;SDS011;13107;51.304;6.866;2023-06-22T16:46:54;35.03;;;31.17;;
25127;SDS011;13107;51.304;6.866;2023-06-22T16:50:56;35.15;;;31.33;;
25127;SDS011;13107;51.304;6.866;2023-06-22T16:54:57;30.98;;;27.83;;
25127;SDS011;13107;51.304;6.866;2023-06-22T16:59:03;29.60;;;25.02;;
25127;SDS011;13107;51.304;6.866;2023-06-22T17:03:08;26.90;;;24.10;;
25127;SDS011;13107;51.304;6.866;2023-06-22T17:07:17;25.75;;;22.50;;
25127;SDS011;13107;51.304;6.866;2023-06-22T17:11:20;24.60;;;21.98;;
25127;SDS011;13107;51.304;6.866;2023-06-22T17:15:22;24.50;;;21.98;;
25127;SDS011;13107;51.304;6.866;2023-06-22T17:19:26;26.35;;;22.20;;
25127;SDS011;13107;51.304;6.866;2023-06-22T17:23:28;24.87;;;22.40;;
25127;SDS011;13107;51.304;6.866;2023-06-22T17:27:32;24.90;;;21.37;;
25127;SDS011;13107;51.304;6.866;2023-06-22T17:31:38;24.58;;;21.92;;
25127;SDS011;13107;51.304;6.866;2023-06-22T17:35:45;24.02;;;21.23;;
25127;SDS011;13107;51.304;6.866;2023-06-22T17:39:51;24.75;;;22.02;;
25127;SDS011;13107;51.304;6.866;2023-06-22T17:43:55;23.58;;;21.12;;
25127;SDS011;13107;51.304;6.866;2023-06-22T17:47:58;23.17;;;20.60;;
25127;SDS011;13107;51.304;6.866;2023-06-22T17:52:00;22.50;;;20.10;;
25127;SDS011;13107;51.304;6.866;2023-06-22T17:56:02;22.62;;;20.37;;
25127;SDS011;13107;51.304;6.866;2023-06-22T18:00:04;21.00;;;18.80;;
25127;SDS011;13107;51.304;6.866;2023-06-22T18:08:20;23.20;;;20.80;;
25127;SDS011;13107;51.304;6.866;2023-06-22T18:12:26;25.42;;;23.05;;
25127;SDS011;13107;51.304;6.866;2023-06-22T18:16:31;30.23;;;27.10;;
25127;SDS011;13107;51.304;6.866;2023-06-22T18:20:35;36.47;;;32.55;;
25127;SDS011;13107;51.304;6.866;2023-06-22T18:24:37;37.35;;;33.70;;
25127;SDS011;13107;51.304;6.866;2023-06-22T18:28:41;40.42;;;36.35;;
25127;SDS011;13107;51.304;6.866;2023-06-22T18:32:44;42.00;;;37.85;;
25127;SDS011;13107;51.304;6.866;2023-06-22T18:36:49;38.97;;;35.03;;
25127;SDS011;13107;51.304;6.866;2023-06-22T18:40:52;38.92;;;34.90;;
25127;SDS011;13107;51.304;6.866;2023-06-22T18:44:54;39.55;;;35.38;;
25127;SDS011;13107;51.304;6.866;2023-06-22T18:49:00;43.53;;;36.13;;
25127;SDS011;13107;51.304;6.866;2023-06-22T18:53:15;34.47;;;31.00;;
25127;SDS011;13107;51.304;6.866;2023-06-22T18:57:29;32.58;;;29.37;;
25127;SDS011;13107;51.304;6.866;2023-06-22T19:01:33;29.35;;;26.35;;
25127;SDS011;13107;51.304;6.866;2023-06-22T19:05:39;23.92;;;21.58;;
25127;SDS011;13107;51.304;6.866;2023-06-22T19:09:47;22.00;;;19.77;;
25127;SDS011;13107;51.304;6.866;2023-06-22T19:18:32;20.88;;;18.77;;
25127;SDS011;13107;51.304;6.866;2023-06-22T19:22:45;27.17;;;24.48;;
25127;SDS011;13107;51.304;6.866;2023-06-22T19:26:55;25.70;;;23.00;;
25127;SDS011;13107;51.304;6.866;2023-06-22T19:31:00;18.50;;;16.40;;
25127;SDS011;13107;51.304;6.866;2023-06-22T19:35:03;19.33;;;17.02;;
25127;SDS011;13107;51.304;6.866;2023-06-22T19:39:08;18.58;;;16.50;;
25127;SDS011;13107;51.304;6.866;2023-06-22T19:43:12;18.37;;;14.95;;
25127;SDS011;13107;51.304;6.866;2023-06-22T19:47:19;14.45;;;12.98;;
25127;SDS011;13107;51.304;6.866;2023-06-22T19:51:21;15.27;;;13.68;;
25127;SDS011;13107;51.304;6.866;2023-06-22T19:55:23;15.27;;;13.13;;
25127;SDS011;13107;51.304;6.866;2023-06-22T19:59:25;14.13;;;12.63;;
25127;SDS011;13107;51.304;6.866;2023-06-22T20:03:45;15.32;;;13.48;;
25127;SDS011;13107;51.304;6.866;2023-06-22T20:07:47;16.58;;;14.40;;
25127;SDS011;13107;51.304;6.866;2023-06-22T20:11:55;17.08;;;15.27;;
25127;SDS011;13107;51.304;6.866;2023-06-22T20:15:58;20.05;;;17.62;;
25127;SDS011;13107;51.304;6.866;2023-06-22T20:20:17;20.52;;;18.30;;
25127;SDS011;13107;51.304;6.866;2023-06-22T20:24:21;17.77;;;15.93;;
25127;SDS011;13107;51.304;6.866;2023-06-22T20:28:24;19.23;;;17.05;;
25127;SDS011;13107;51.304;6.866;2023-06-22T20:32:26;19.37;;;16.25;;
25127;SDS011;13107;51.304;6.866;2023-06-22T20:36:28;19.17;;;17.00;;
25127;SDS011;13107;51.304;6.866;2023-06-22T20:40:30;21.50;;;15.93;;
25127;SDS011;13107;51.304;6.866;2023-06-22T20:44:35;16.23;;;14.48;;
25127;SDS011;13107;51.304;6.866;2023-06-22T20:48:37;18.48;;;16.12;;
25127;SDS011;13107;51.304;6.866;2023-06-22T20:52:40;20.37;;;17.05;;
25127;SDS011;13107;51.304;6.866;2023-06-22T20:56:43;19.95;;;17.90;;
25127;SDS011;13107;51.304;6.866;2023-06-22T21:00:46;21.75;;;18.73;;
25127;SDS011;13107;51.304;6.866;2023-06-22T21:04:48;21.20;;;18.45;;
25127;SDS011;13107;51.304;6.866;2023-06-22T21:08:50;18.60;;;16.60;;
25127;SDS011;13107;51.304;6.866;2023-06-22T21:12:52;20.50;;;16.50;;
25127;SDS011;13107;51.304;6.866;2023-06-22T21:16:54;16.80;;;14.95;;
25127;SDS011;13107;51.304;6.866;2023-06-22T21:20:55;17.62;;;15.13;;
25127;SDS011;13107;51.304;6.866;2023-06-22T21:25:07;15.35;;;13.82;;
25127;SDS011;13107;51.304;6.866;2023-06-22T21:29:11;15.88;;;14.02;;
25127;SDS011;13107;51.304;6.866;2023-06-22T21:33:13;17.40;;;15.75;;
25127;SDS011;13107;51.304;6.866;2023-06-22T21:37:15;18.05;;;15.13;;
25127;SDS011;13107;51.304;6.866;2023-06-22T21:41:16;17.77;;;16.05;;
25127;SDS011;13107;51.304;6.866;2023-06-22T21:45:18;17.42;;;14.80;;
25127;SDS011;13107;51.304;6.866;2023-06-22T21:49:20;16.75;;;15.05;;
25127;SDS011;13107;51.304;6.866;2023-06-22T21:53:22;16.20;;;14.32;;
25127;SDS011;13107;51.304;6.866;2023-06-22T21:57:27;16.87;;;15.18;;
25127;SDS011;13107;51.304;6.866;2023-06-22T22:01:29;15.35;;;13.62;;
25127;SDS011;13107;51.304;6.866;2023-06-22T22:05:31;16.65;;;14.95;;
25127;SDS011;13107;51.304;6.866;2023-06-22T22:09:33;16.25;;;14.55;;
25127;SDS011;13107;51.304;6.866;2023-06-22T22:13:35;17.35;;;14.70;;
25127;SDS011;13107;51.304;6.866;2023-06-22T22:17:37;16.92;;;15.13;;
25127;SDS011;13107;51.304;6.866;2023-06-22T22:21:39;16.75;;;15.00;;
25127;SDS011;13107;51.304;6.866;2023-06-22T22:25:41;16.02;;;14.32;;
25127;SDS011;13107;51.304;6.866;2023-06-22T22:29:43;15.57;;;14.05;;
25127;SDS011;13107;51.304;6.866;2023-06-22T22:33:46;18.75;;;14.23;;
25127;SDS011;13107;51.304;6.866;2023-06-22T22:37:47;14.85;;;13.45;;
25127;SDS011;13107;51.304;6.866;2023-06-22T22:41:49;15.93;;;14.40;;
25127;SDS011;13107;51.304;6.866;2023-06-22T22:45:51;16.52;;;14.82;;
25127;SDS011;13107;51.304;6.866;2023-06-22T22:49:53;17.80;;;14.87;;
25127;SDS011;13107;51.304;6.866;2023-06-22T22:53:54;15.65;;;13.90;;
25127;SDS011;13107;51.304;6.866;2023-06-22T22:57:56;16.70;;;13.73;;
25127;SDS011;13107;51.304;6.866;2023-06-22T23:01:58;15.48;;;13.98;;
25127;SDS011;13107;51.304;6.866;2023-06-22T23:06:00;16.30;;;14.38;;
25127;SDS011;13107;51.304;6.866;2023-06-22T23:10:02;15.85;;;14.25;;
25127;SDS011;13107;51.304;6.866;2023-06-22T23:14:03;15.52;;;13.15;;
25127;SDS011;13107;51.304;6.866;2023-06-22T23:18:05;16.40;;;14.15;;
25127;SDS011;13107;51.304;6.866;2023-06-22T23:22:10;15.95;;;14.07;;
25127;SDS011;13107;51.304;6.866;2023-06-22T23:26:13;18.85;;;16.08;;
25127;SDS011;13107;51.304;6.866;2023-06-22T23:30:15;19.92;;;16.90;;
25127;SDS011;13107;51.304;6.866;2023-06-22T23:34:18;18.08;;;16.17;;
25127;SDS011;13107;51.304;6.866;2023-06-22T23:38:20;18.27;;;16.37;;
25127;SDS011;13107;51.304;6.866;2023-06-22T23:42:21;21.23;;;17.80;;
25127;SDS011;13107;51.304;6.866;2023-06-22T23:46:23;18.50;;;16.60;;
25127;SDS011;13107;51.304;6.866;2023-06-22T23:50:25;23.00;;;17.30;;
25127;SDS011;13107;51.304;6.866;2023-06-22T23:54:28;18.40;;;15.98;;
25127;SDS011;13107;51.304;6.866;2023-06-22T23:58:29;19.33;;;16.27;;
